Time;durP1;ratioP1;P1;durP2;ratioP2;P2;SDS_P1;SDS_P2;PMS_P1;PMS_P2;Temp;Humidity;BMP_temperature;BMP_pressure;BME280_temperature;BME280_humidity;BME280_pressure;Samples;Min_cycle;Max_cycle;Signal;HPM_P1;HPM_P2
2023/07/09 00:02:12;;;;;;;4.78;4.28;;;22.00;65.40;;;;;;5057360;28;20193;-82
2023/07/09 00:04:38;;;;;;;4.75;4.20;;;22.00;65.40;;;;;;5074060;28;20225;-83
2023/07/09 00:07:04;;;;;;;4.20;3.80;;;22.00;65.40;;;;;;5073737;28;20327;-82
2023/07/09 00:09:30;;;;;;;4.50;4.10;;;22.00;65.40;;;;;;5075076;28;20687;-82
2023/07/09 00:11:57;;;;;;;4.68;4.28;;;22.00;65.50;;;;;;5073744;28;20296;-83
2023/07/09 00:14:23;;;;;;;4.65;4.20;;;22.00;65.50;;;;;;5057036;28;20166;-81
2023/07/09 00:16:49;;;;;;;5.07;4.57;;;22.00;65.40;;;;;;5057256;28;20180;-84
2023/07/09 00:19:18;;;;;;;4.63;4.22;;;22.00;65.40;;;;;;5056876;28;20196;-82
2023/07/09 00:21:45;;;;;;;4.70;4.20;;;22.00;65.40;;;;;;5056897;28;20165;-81
2023/07/09 00:24:14;;;;;;;4.65;4.15;;;22.00;65.40;;;;;;5057913;28;20162;-83
2023/07/09 00:26:40;;;;;;;4.10;3.75;;;22.00;65.40;;;;;;5057171;28;20167;-82
2023/07/09 00:29:13;;;;;;;4.82;4.00;;;22.00;65.40;;;;;;5073521;28;20196;-82
2023/07/09 00:31:40;;;;;;;4.82;4.22;;;22.00;65.50;;;;;;5073417;28;20248;-84
2023/07/09 00:34:11;;;;;;;4.30;3.85;;;22.00;65.50;;;;;;5073332;28;20185;-81
2023/07/09 00:36:37;;;;;;;4.60;4.20;;;22.00;65.50;;;;;;5076158;28;20240;-82
2023/07/09 00:39:04;;;;;;;4.22;3.83;;;22.00;65.50;;;;;;5043873;28;20284;-83
2023/07/09 00:41:34;;;;;;;4.80;4.30;;;22.00;66.40;;;;;;5076635;28;20198;-83
2023/07/09 00:44:25;;;;;;;4.85;4.35;;;22.00;65.50;;;;;;5076540;28;20144;-83
2023/07/09 00:47:17;;;;;;;4.30;3.90;;;22.00;65.50;;;;;;5076614;28;20157;-81
2023/07/09 00:49:46;;;;;;;4.38;3.97;;;22.00;65.60;;;;;;5047021;28;20161;-82
2023/07/09 00:52:29;;;;;;;4.43;4.03;;;22.00;65.50;;;;;;5076744;28;20148;-81
2023/07/09 00:54:55;;;;;;;4.53;4.13;;;21.90;65.50;;;;;;5094333;28;20184;-83
2023/07/09 00:57:22;;;;;;;4.75;4.25;;;22.00;65.60;;;;;;5076148;28;20180;-83
2023/07/09 00:59:50;;;;;;;4.47;4.07;;;22.00;65.50;;;;;;5094411;28;20634;-82
2023/07/09 01:02:17;;;;;;;4.47;4.07;;;22.00;65.60;;;;;;5076422;28;20210;-84
2023/07/09 01:04:43;;;;;;;4.60;4.20;;;22.00;65.60;;;;;;5076245;28;20149;-84
2023/07/09 01:07:09;;;;;;;4.40;4.00;;;21.90;65.60;;;;;;5094074;28;20163;-84
2023/07/09 01:09:40;;;;;;;4.30;3.90;;;22.00;65.60;;;;;;5059202;28;20172;-83
2023/07/09 01:12:07;;;;;;;4.57;4.18;;;21.90;65.70;;;;;;5094323;28;20230;-82
2023/07/09 01:14:35;;;;;;;4.70;4.30;;;22.00;65.80;;;;;;5059100;28;20183;-83
2023/07/09 01:17:04;;;;;;;4.25;3.85;;;21.90;65.80;;;;;;5076298;28;20149;-81
2023/07/09 01:19:40;;;;;;;4.45;4.05;;;21.90;65.80;;;;;;5076046;28;20192;-82
2023/07/09 01:22:06;;;;;;;4.18;3.78;;;21.90;65.80;;;;;;5076732;28;20148;-82
2023/07/09 01:24:47;;;;;;;4.13;3.72;;;21.90;65.80;;;;;;5059070;28;20506;-83
2023/07/09 01:27:13;;;;;;;4.78;4.00;;;22.00;65.90;;;;;;5075698;28;20290;-82
2023/07/09 01:29:39;;;;;;;4.50;4.07;;;21.90;65.80;;;;;;5075670;28;20173;-82
2023/07/09 01:32:06;;;;;;;4.90;4.22;;;21.90;65.80;;;;;;5075538;28;20535;-83
2023/07/09 01:34:33;;;;;;;4.50;4.10;;;21.90;65.80;;;;;;5075983;28;20623;-82
2023/07/09 01:36:58;;;;;;;4.10;3.70;;;21.80;65.80;;;;;;5071926;28;20224;-82
2023/07/09 01:39:28;;;;;;;4.60;4.20;;;21.90;65.80;;;;;;5073216;28;20223;-82
2023/07/09 01:41:54;;;;;;;4.65;4.15;;;21.90;65.90;;;;;;5071974;28;20157;-81
2023/07/09 01:44:20;;;;;;;4.28;3.80;;;21.80;65.90;;;;;;5072190;28;20153;-82
2023/07/09 01:46:46;;;;;;;4.68;3.95;;;21.90;65.90;;;;;;5072472;28;20161;-82
2023/07/09 01:49:12;;;;;;;4.32;3.92;;;21.80;65.90;;;;;;5073516;28;20161;-82
2023/07/09 01:51:39;;;;;;;4.45;4.05;;;21.90;66.00;;;;;;5072053;28;20177;-83
2023/07/09 01:54:05;;;;;;;4.32;3.80;;;21.90;66.00;;;;;;5072093;28;20195;-81
2023/07/09 01:56:31;;;;;;;4.43;4.03;;;21.80;65.90;;;;;;5073241;28;20161;-83
2023/07/09 01:59:01;;;;;;;4.25;3.85;;;21.80;65.90;;;;;;5071900;28;20177;-82
2023/07/09 02:01:28;;;;;;;4.45;4.05;;;21.80;65.90;;;;;;5072006;28;20141;-84
2023/07/09 02:03:55;;;;;;;4.40;4.00;;;21.80;65.90;;;;;;5072487;28;20235;-82
2023/07/09 02:06:24;;;;;;;4.82;4.38;;;21.90;65.90;;;;;;5072024;28;20149;-84
2023/07/09 02:08:50;;;;;;;4.43;4.03;;;21.80;65.90;;;;;;5071941;28;20149;-83
2023/07/09 02:11:16;;;;;;;4.25;3.85;;;21.80;66.00;;;;;;5072127;28;20156;-82
2023/07/09 02:13:42;;;;;;;4.13;3.72;;;21.90;66.00;;;;;;5055060;28;20252;-84
2023/07/09 02:16:07;;;;;;;4.32;3.92;;;21.90;66.00;;;;;;5055261;28;20273;-83
2023/07/09 02:18:34;;;;;;;4.40;4.00;;;21.80;66.00;;;;;;5071663;28;20181;-82
2023/07/09 02:21:00;;;;;;;4.53;4.10;;;21.80;66.00;;;;;;5072068;28;20241;-83
2023/07/09 02:23:27;;;;;;;4.63;4.22;;;21.80;66.00;;;;;;5071818;28;20161;-83
2023/07/09 02:25:53;;;;;;;4.60;4.20;;;21.80;66.00;;;;;;5054956;28;20604;-81
2023/07/09 02:28:19;;;;;;;4.80;4.30;;;21.80;66.00;;;;;;5071689;28;20161;-82
2023/07/09 02:30:45;;;;;;;4.53;4.13;;;21.80;66.10;;;;;;5072791;28;20158;-82
2023/07/09 02:33:11;;;;;;;4.28;3.88;;;21.80;66.10;;;;;;5071702;28;20211;-81
2023/07/09 02:35:37;;;;;;;4.43;4.03;;;21.80;66.20;;;;;;5073107;28;20172;-81
2023/07/09 02:38:03;;;;;;;3.92;3.60;;;21.80;66.20;;;;;;5086154;28;20216;-82
2023/07/09 02:40:29;;;;;;;4.93;4.43;;;21.70;66.10;;;;;;5058148;28;20188;-83
2023/07/09 02:42:55;;;;;;;4.80;4.38;;;21.80;66.10;;;;;;5058961;28;20173;-81
2023/07/09 02:45:21;;;;;;;4.65;4.15;;;21.80;66.30;;;;;;5092891;28;20157;-84
2023/07/09 02:47:47;;;;;;;4.00;3.60;;;21.80;66.20;;;;;;5058231;28;20197;-83
2023/07/09 02:50:13;;;;;;;4.68;4.28;;;21.70;66.20;;;;;;5058072;28;20241;-82
2023/07/09 02:52:41;;;;;;;4.18;3.78;;;21.80;66.30;;;;;;5076523;28;20299;-83
2023/07/09 02:55:08;;;;;;;4.30;3.90;;;21.80;66.30;;;;;;5096631;28;20141;-83
2023/07/09 02:57:34;;;;;;;5.30;4.15;;;21.80;66.20;;;;;;5096589;28;20633;-82
2023/07/09 03:00:00;;;;;;;4.35;3.95;;;21.80;66.10;;;;;;5061998;28;20245;-82
2023/07/09 03:02:26;;;;;;;4.60;4.15;;;21.80;66.20;;;;;;5096468;28;20141;-83
2023/07/09 03:04:52;;;;;;;4.60;4.13;;;21.80;66.20;;;;;;5096661;28;20240;-84
2023/07/09 03:07:18;;;;;;;4.55;4.15;;;21.80;66.30;;;;;;5078337;28;20192;-84
2023/07/09 03:09:44;;;;;;;4.57;4.18;;;21.80;66.30;;;;;;5078303;28;20153;-83
2023/07/09 03:12:10;;;;;;;4.50;4.00;;;21.80;66.40;;;;;;5078209;28;20171;-82
2023/07/09 03:14:36;;;;;;;4.30;3.90;;;21.70;66.30;;;;;;5096553;28;20153;-83
2023/07/09 03:17:02;;;;;;;4.40;4.00;;;21.80;66.30;;;;;;5078115;28;20165;-83
2023/07/09 03:19:28;;;;;;;4.20;3.80;;;21.80;66.30;;;;;;5096234;28;20185;-83
2023/07/09 03:21:54;;;;;;;4.57;4.18;;;21.70;66.30;;;;;;5078526;28;20513;-83
2023/07/09 03:24:20;;;;;;;4.18;3.78;;;21.70;66.30;;;;;;5078265;28;20157;-82
2023/07/09 03:26:46;;;;;;;4.20;3.80;;;21.70;66.30;;;;;;5078057;28;20148;-82
2023/07/09 03:29:12;;;;;;;4.40;4.00;;;21.70;66.30;;;;;;5077972;28;20160;-82
2023/07/09 03:31:38;;;;;;;4.45;4.05;;;21.70;66.30;;;;;;5096216;28;20156;-82
2023/07/09 03:34:04;;;;;;;4.25;3.85;;;21.70;66.40;;;;;;5078093;28;20161;-83
2023/07/09 03:36:30;;;;;;;4.70;4.18;;;21.70;66.40;;;;;;5095861;28;20149;-82
2023/07/09 03:38:55;;;;;;;4.35;3.95;;;21.70;66.40;;;;;;5095752;28;20185;-82
2023/07/09 03:41:21;;;;;;;4.25;3.85;;;21.70;67.20;;;;;;5077577;28;20631;-83
2023/07/09 03:43:50;;;;;;;4.43;4.03;;;21.70;66.30;;;;;;5095826;28;20608;-83
2023/07/09 03:46:15;;;;;;;3.88;3.58;;;21.80;66.30;;;;;;5077726;28;20179;-82
2023/07/09 03:48:41;;;;;;;4.22;3.83;;;21.80;66.30;;;;;;5077422;28;20161;-82
2023/07/09 03:51:07;;;;;;;4.00;3.60;;;21.70;66.00;;;;;;5077532;28;20187;-83
2023/07/09 03:53:33;;;;;;;4.57;4.10;;;21.80;66.00;;;;;;5095459;28;20257;-83
2023/07/09 03:56:00;;;;;;;4.38;3.97;;;21.80;66.00;;;;;;5095530;28;20686;-83
2023/07/09 03:58:26;;;;;;;4.32;3.92;;;21.80;66.00;;;;;;5060661;28;20565;-82
2023/07/09 04:00:53;;;;;;;4.10;3.70;;;21.80;65.90;;;;;;5060475;28;20157;-82
2023/07/09 04:03:20;;;;;;;3.85;3.45;;;21.80;65.80;;;;;;5095012;28;20156;-82
2023/07/09 04:05:48;;;;;;;5.55;4.15;;;21.90;65.80;;;;;;5077167;28;20153;-83
2023/07/09 04:08:14;;;;;;;3.80;3.50;;;21.90;65.80;;;;;;5077326;28;20523;-83
2023/07/09 04:10:40;;;;;;;4.30;3.90;;;21.80;65.80;;;;;;5095236;28;20608;-82
2023/07/09 04:13:06;;;;;;;4.22;3.83;;;21.90;65.80;;;;;;5095166;28;20157;-82
2023/07/09 04:15:32;;;;;;;4.35;3.92;;;21.90;65.80;;;;;;5095491;28;20626;-82
2023/07/09 04:17:58;;;;;;;4.20;3.80;;;21.90;65.70;;;;;;5060196;28;20529;-84
2023/07/09 04:20:24;;;;;;;4.10;3.70;;;21.90;65.50;;;;;;5077344;28;20615;-84
2023/07/09 04:22:50;;;;;;;4.43;4.03;;;21.90;65.50;;;;;;5077143;28;20180;-83
2023/07/09 04:25:16;;;;;;;4.38;3.97;;;22.00;65.40;;;;;;5076925;28;20159;-83
2023/07/09 04:27:42;;;;;;;4.32;3.92;;;22.00;65.40;;;;;;5076933;28;20159;-84
2023/07/09 04:30:13;;;;;;;4.22;3.83;;;21.90;65.30;;;;;;5076726;28;20244;-84
2023/07/09 04:32:38;;;;;;;4.55;4.13;;;22.00;65.30;;;;;;5076590;28;20338;-85
2023/07/09 04:35:06;;;;;;;4.07;3.67;;;22.00;65.10;;;;;;5076662;28;20157;-83
2023/07/09 04:37:32;;;;;;;4.38;3.97;;;22.00;65.10;;;;;;5056744;28;20578;-83
2023/07/09 04:39:57;;;;;;;4.25;3.83;;;22.00;65.10;;;;;;5056355;28;20659;-83
2023/07/09 04:42:23;;;;;;;4.03;3.63;;;22.00;65.10;;;;;;5073487;28;20512;-84
2023/07/09 04:44:49;;;;;;;3.90;3.50;;;22.10;65.00;;;;;;5056408;28;20201;-83
2023/07/09 04:47:15;;;;;;;4.00;3.60;;;22.10;64.80;;;;;;5073117;28;20690;-82
2023/07/09 04:49:42;;;;;;;3.70;3.40;;;22.10;64.80;;;;;;5073012;28;20192;-84
2023/07/09 04:52:11;;;;;;;4.30;3.90;;;22.20;64.90;;;;;;5056246;28;20560;-84
2023/07/09 04:54:38;;;;;;;3.85;3.45;;;22.10;64.90;;;;;;5073019;28;20156;-83
2023/07/09 04:57:05;;;;;;;4.10;3.70;;;22.10;64.70;;;;;;5074376;28;20168;-84
2023/07/09 04:59:31;;;;;;;4.32;3.92;;;22.20;64.70;;;;;;5073942;28;20186;-83
2023/07/09 05:01:58;;;;;;;4.03;3.63;;;22.20;64.50;;;;;;5072808;28;20639;-84
2023/07/09 05:04:24;;;;;;;3.90;3.53;;;22.20;64.50;;;;;;5072714;28;20245;-84
2023/07/09 05:06:50;;;;;;;4.63;4.13;;;22.20;64.50;;;;;;5072715;28;20681;-82
2023/07/09 05:09:16;;;;;;;4.35;3.95;;;22.20;64.40;;;;;;5072495;28;20568;-82
2023/07/09 05:11:42;;;;;;;4.30;3.90;;;22.20;64.50;;;;;;5073452;28;20256;-83
2023/07/09 05:14:07;;;;;;;4.10;3.70;;;22.30;64.50;;;;;;5056888;28;20205;-82
2023/07/09 05:16:33;;;;;;;4.53;4.05;;;22.30;64.30;;;;;;5073033;28;20157;-85
2023/07/09 05:18:59;;;;;;;4.85;4.20;;;22.30;64.40;;;;;;5072349;28;20185;-83
2023/07/09 05:21:25;;;;;;;3.78;3.35;;;22.30;64.10;;;;;;5073591;28;20150;-83
2023/07/09 05:23:51;;;;;;;3.92;3.55;;;22.30;64.30;;;;;;5055718;28;20627;-83
2023/07/09 05:26:17;;;;;;;4.38;3.97;;;22.20;64.40;;;;;;5055902;28;20169;-84
2023/07/09 05:28:43;;;;;;;4.30;3.88;;;22.40;64.30;;;;;;5073677;28;20595;-84
2023/07/09 05:31:09;;;;;;;4.25;3.85;;;22.30;64.00;;;;;;5055600;28;20268;-85
2023/07/09 05:33:35;;;;;;;4.03;3.63;;;22.40;64.00;;;;;;5073613;28;20690;-85
2023/07/09 05:36:02;;;;;;;3.58;3.28;;;22.30;64.10;;;;;;5072494;28;20571;-83
2023/07/09 05:38:28;;;;;;;4.00;3.60;;;22.30;64.90;;;;;;5090399;28;20274;-83
2023/07/09 05:41:02;;;;;;;4.15;3.70;;;22.40;64.10;;;;;;5093586;28;20161;-85
2023/07/09 05:43:29;;;;;;;3.60;3.30;;;22.30;64.10;;;;;;5075733;28;20197;-82
2023/07/09 05:45:54;;;;;;;3.80;3.50;;;22.40;64.00;;;;;;5058802;28;20161;-84
2023/07/09 05:48:20;;;;;;;4.88;3.50;;;22.40;63.80;;;;;;5093469;28;20152;-83
2023/07/09 05:50:47;;;;;;;4.00;3.60;;;22.40;63.90;;;;;;5093499;28;20159;-82
2023/07/09 05:53:14;;;;;;;4.00;3.60;;;22.40;63.80;;;;;;5058597;28;20594;-82
2023/07/09 05:55:39;;;;;;;4.28;3.88;;;22.30;64.00;;;;;;5058953;28;20179;-82
2023/07/09 05:58:05;;;;;;;4.03;3.63;;;22.40;63.90;;;;;;5058818;28;20173;-83
2023/07/09 06:00:32;;;;;;;4.18;3.78;;;22.40;63.90;;;;;;5075231;28;20176;-83
2023/07/09 06:02:58;;;;;;;4.10;3.70;;;22.50;63.70;;;;;;5058661;28;20571;-83
2023/07/09 06:05:24;;;;;;;3.63;3.30;;;22.50;63.70;;;;;;5093390;28;20149;-84
2023/07/09 06:07:50;;;;;;;3.80;3.30;;;22.50;63.80;;;;;;5058749;28;20213;-84
2023/07/09 06:10:16;;;;;;;3.95;3.55;;;22.60;63.40;;;;;;5058513;28;20175;-84
2023/07/09 06:12:42;;;;;;;4.18;3.78;;;22.50;63.30;;;;;;5075098;28;20183;-83
2023/07/09 06:15:11;;;;;;;3.95;3.60;;;22.50;63.20;;;;;;5093468;28;20239;-83
2023/07/09 06:17:37;;;;;;;3.90;3.50;;;22.50;63.40;;;;;;5075170;28;20228;-83
2023/07/09 06:20:04;;;;;;;3.67;3.33;;;22.50;63.20;;;;;;5058278;28;20196;-82
2023/07/09 06:22:30;;;;;;;3.92;3.53;;;22.60;63.40;;;;;;5093485;28;20141;-82
2023/07/09 06:24:56;;;;;;;4.03;3.63;;;22.50;63.40;;;;;;5075085;28;20153;-82
2023/07/09 06:27:22;;;;;;;4.15;3.75;;;22.50;63.30;;;;;;5076361;28;20205;-84
2023/07/09 06:29:47;;;;;;;4.03;3.63;;;22.50;63.30;;;;;;5097417;28;20157;-83
2023/07/09 06:32:13;;;;;;;4.10;3.70;;;22.60;63.40;;;;;;5078921;28;20172;-83
2023/07/09 06:34:39;;;;;;;3.70;3.40;;;22.60;63.00;;;;;;5097694;28;20191;-84
2023/07/09 06:37:05;;;;;;;4.10;3.70;;;22.60;63.10;;;;;;5078733;28;20239;-83
2023/07/09 06:39:31;;;;;;;3.70;3.40;;;22.50;63.60;;;;;;5078832;28;20661;-83
2023/07/09 06:41:57;;;;;;;3.88;3.58;;;22.40;64.30;;;;;;5078895;28;20226;-83
2023/07/09 06:44:25;;;;;;;3.92;3.53;;;22.20;64.80;;;;;;5061916;28;20160;-84
2023/07/09 06:46:51;;;;;;;4.07;3.67;;;22.20;65.10;;;;;;5079414;28;20164;-84
2023/07/09 06:49:17;;;;;;;3.88;3.50;;;22.10;65.00;;;;;;5078669;28;20267;-83
2023/07/09 06:51:43;;;;;;;4.05;3.65;;;22.10;65.40;;;;;;5061771;28;20207;-84
2023/07/09 06:54:09;;;;;;;4.10;3.70;;;22.10;65.60;;;;;;5097081;28;20188;-84
2023/07/09 06:56:35;;;;;;;3.78;3.38;;;22.10;65.40;;;;;;5096586;28;20252;-85
2023/07/09 06:59:01;;;;;;;3.42;3.13;;;22.00;65.60;;;;;;5061634;28;20200;-84
2023/07/09 07:01:27;;;;;;;3.75;3.45;;;22.10;65.60;;;;;;5061694;28;20619;-82
2023/07/09 07:03:53;;;;;;;3.85;3.50;;;22.10;65.70;;;;;;5061647;28;20172;-84
2023/07/09 07:06:19;;;;;;;3.65;3.35;;;22.10;66.50;;;;;;5096462;28;20672;-84
2023/07/09 07:08:45;;;;;;;3.50;3.20;;;22.10;65.60;;;;;;5096622;28;20160;-83
2023/07/09 07:11:10;;;;;;;4.03;3.63;;;22.10;65.90;;;;;;5096404;28;20164;-84
2023/07/09 07:13:38;;;;;;;3.42;3.13;;;22.10;65.80;;;;;;5078362;28;20531;-82
2023/07/09 07:16:05;;;;;;;3.65;3.35;;;22.00;65.90;;;;;;5096230;28;20157;-84
2023/07/09 07:18:32;;;;;;;3.28;2.97;;;22.00;66.10;;;;;;5061311;28;20199;-83
2023/07/09 07:20:58;;;;;;;2.95;2.75;;;22.10;66.00;;;;;;5078096;28;20585;-82
2023/07/09 07:23:24;;;;;;;3.78;3.40;;;22.10;65.80;;;;;;5061465;28;20260;-83
2023/07/09 07:25:50;;;;;;;3.70;3.30;;;22.10;65.60;;;;;;5095982;28;20632;-83
2023/07/09 07:28:16;;;;;;;3.35;3.05;;;22.10;65.90;;;;;;5096378;28;20157;-82
2023/07/09 07:30:42;;;;;;;3.50;3.20;;;22.10;65.80;;;;;;5077812;28;20627;-83
2023/07/09 07:33:08;;;;;;;3.17;2.88;;;22.20;65.70;;;;;;5095968;28;20194;-83
2023/07/09 07:35:34;;;;;;;4.35;3.38;;;22.20;65.70;;;;;;5077710;28;20575;-82
2023/07/09 07:38:00;;;;;;;3.80;3.50;;;22.10;65.60;;;;;;5077576;28;20269;-82
2023/07/09 07:40:26;;;;;;;3.20;2.90;;;22.00;65.90;;;;;;5060195;28;20164;-82
2023/07/09 07:42:52;;;;;;;3.38;3.08;;;22.10;65.90;;;;;;5095769;28;20619;-81
2023/07/09 07:45:18;;;;;;;3.60;3.30;;;22.10;65.80;;;;;;5077663;28;20157;-84
2023/07/09 07:47:44;;;;;;;3.72;3.35;;;22.10;65.90;;;;;;5077862;28;20172;-82
2023/07/09 07:50:10;;;;;;;3.20;2.90;;;22.20;65.80;;;;;;5077467;28;20161;-83
2023/07/09 07:52:37;;;;;;;3.40;3.10;;;22.10;65.60;;;;;;5077529;28;20243;-83
2023/07/09 07:55:10;;;;;;;3.53;3.22;;;22.20;65.80;;;;;;5077421;28;20188;-84
2023/07/09 07:57:35;;;;;;;3.15;2.85;;;22.10;65.90;;;;;;5060506;28;20221;-82
2023/07/09 08:00:02;;;;;;;3.50;3.13;;;22.20;65.80;;;;;;5060697;28;20279;-82
2023/07/09 08:02:28;;;;;;;3.42;3.13;;;22.10;65.90;;;;;;5077224;28;20211;-83
2023/07/09 08:04:54;;;;;;;2.95;2.72;;;22.10;65.80;;;;;;5095397;28;20557;-84
2023/07/09 08:07:20;;;;;;;3.20;2.90;;;22.20;65.60;;;;;;5095264;28;20160;-84
2023/07/09 08:09:47;;;;;;;2.70;2.50;;;22.20;65.60;;;;;;5077122;28;20244;-83
2023/07/09 08:12:13;;;;;;;3.20;2.90;;;22.20;65.60;;;;;;5095298;28;20157;-83
2023/07/09 08:14:40;;;;;;;3.10;2.80;;;22.20;65.60;;;;;;5077079;28;20194;-84
2023/07/09 08:17:06;;;;;;;3.00;2.70;;;22.20;65.60;;;;;;5095169;28;20184;-82
2023/07/09 08:19:32;;;;;;;2.90;2.65;;;22.20;65.70;;;;;;5095138;28;20180;-83
2023/07/09 08:21:58;;;;;;;3.40;3.10;;;22.00;65.60;;;;;;5060274;28;20165;-83
2023/07/09 08:24:24;;;;;;;2.90;2.58;;;22.10;65.90;;;;;;5095003;28;20175;-83
2023/07/09 08:26:50;;;;;;;3.20;2.90;;;22.10;66.00;;;;;;5076926;28;20149;-84
2023/07/09 08:29:16;;;;;;;2.75;2.55;;;22.10;65.90;;;;;;5094852;28;20153;-82
2023/07/09 08:31:42;;;;;;;2.88;2.60;;;22.10;66.00;;;;;;5094906;28;20156;-84
2023/07/09 08:34:08;;;;;;;3.03;2.72;;;22.10;65.70;;;;;;5076661;28;20249;-84
2023/07/09 08:36:34;;;;;;;3.30;3.00;;;22.10;65.80;;;;;;5076463;28;20218;-83
2023/07/09 08:39:02;;;;;;;3.20;2.90;;;22.10;65.90;;;;;;5094569;28;20196;-82
2023/07/09 08:41:42;;;;;;;3.00;2.80;;;22.10;65.80;;;;;;5076621;28;20236;-82
2023/07/09 08:44:27;;;;;;;2.95;2.75;;;22.10;65.60;;;;;;5076811;28;20209;-82
2023/07/09 08:47:14;;;;;;;2.90;2.70;;;22.20;65.40;;;;;;5094450;28;20153;-84
2023/07/09 08:49:47;;;;;;;2.85;2.60;;;22.20;65.50;;;;;;5094919;28;20168;-83
2023/07/09 08:52:32;;;;;;;2.67;2.47;;;22.10;65.60;;;;;;5077240;28;20149;-83
2023/07/09 08:55:01;;;;;;;2.97;2.67;;;22.20;65.60;;;;;;5059542;28;20177;-83
2023/07/09 08:57:30;;;;;;;2.92;2.65;;;22.20;65.30;;;;;;5076314;28;20177;-82
2023/07/09 09:00:00;;;;;;;2.78;2.58;;;22.40;64.80;;;;;;5094360;28;20206;-84
2023/07/09 09:02:33;;;;;;;2.60;2.40;;;22.30;65.00;;;;;;5094453;28;20149;-84
2023/07/09 09:04:59;;;;;;;2.60;2.40;;;22.30;65.00;;;;;;5094328;28;20578;-84
2023/07/09 09:07:39;;;;;;;2.72;2.53;;;22.20;65.20;;;;;;5076053;28;20236;-82
2023/07/09 09:10:05;;;;;;;2.65;2.45;;;22.10;65.40;;;;;;5094159;28;20153;-82
2023/07/09 09:12:37;;;;;;;2.92;2.63;;;22.10;65.40;;;;;;5076256;28;20172;-82
2023/07/09 09:15:09;;;;;;;2.92;2.63;;;22.20;65.40;;;;;;5075957;28;20149;-82
2023/07/09 09:17:35;;;;;;;2.67;2.47;;;22.10;65.50;;;;;;5094118;28;20205;-83
2023/07/09 09:20:04;;;;;;;2.72;2.53;;;22.20;65.50;;;;;;5059337;28;20204;-83
2023/07/09 09:22:33;;;;;;;2.72;2.53;;;22.20;65.60;;;;;;5060058;28;20191;-83
2023/07/09 09:25:04;;;;;;;2.70;2.50;;;22.20;65.70;;;;;;5075722;28;20172;-84
2023/07/09 09:27:30;;;;;;;2.60;2.40;;;22.20;65.40;;;;;;5093621;28;20515;-84
2023/07/09 09:29:56;;;;;;;2.60;2.40;;;22.20;65.50;;;;;;5093963;28;20190;-82
2023/07/09 09:32:25;;;;;;;2.85;2.55;;;22.20;65.60;;;;;;5093526;28;20252;-84
2023/07/09 09:34:51;;;;;;;2.50;2.30;;;22.20;65.60;;;;;;5075652;28;20170;-82
2023/07/09 09:37:25;;;;;;;2.50;2.30;;;22.20;65.50;;;;;;5072192;28;20212;-83
2023/07/09 09:39:51;;;;;;;2.60;2.40;;;22.30;65.20;;;;;;5055584;28;20228;-84
2023/07/09 09:42:17;;;;;;;3.03;2.78;;;22.30;65.00;;;;;;5072102;28;20207;-83
2023/07/09 09:44:44;;;;;;;3.08;2.78;;;22.30;64.90;;;;;;5072090;28;20158;-83
2023/07/09 09:47:11;;;;;;;2.63;2.42;;;22.20;65.20;;;;;;5072097;28;20207;-82
2023/07/09 09:49:44;;;;;;;2.92;2.70;;;22.20;65.40;;;;;;5055364;28;20632;-82
2023/07/09 09:52:13;;;;;;;2.55;2.28;;;22.20;65.40;;;;;;5071961;28;20268;-82
2023/07/09 09:54:41;;;;;;;2.80;2.60;;;22.20;65.40;;;;;;5072262;28;20624;-82
2023/07/09 09:57:18;;;;;;;2.70;2.50;;;22.20;65.30;;;;;;5072280;28;20185;-83
2023/07/09 09:59:46;;;;;;;2.70;2.50;;;22.30;65.20;;;;;;5071823;28;20262;-83
2023/07/09 10:02:16;;;;;;;3.55;2.25;;;22.30;64.90;;;;;;5055162;28;20230;-81
2023/07/09 10:04:43;;;;;;;2.58;2.38;;;22.30;65.00;;;;;;5073295;28;20160;-81
2023/07/09 10:07:21;;;;;;;2.40;2.20;;;22.30;64.90;;;;;;5073070;28;20154;-81
2023/07/09 10:09:51;;;;;;;2.60;2.40;;;22.30;64.80;;;;;;5072219;28;20169;-82
2023/07/09 10:12:32;;;;;;;2.60;2.40;;;22.40;64.50;;;;;;5071965;28;20160;-82
2023/07/09 10:15:04;;;;;;;2.72;2.53;;;22.40;64.50;;;;;;5055138;28;20177;-82
2023/07/09 10:17:39;;;;;;;2.38;2.17;;;22.40;65.40;;;;;;5072923;28;20153;-82
2023/07/09 10:20:22;;;;;;;2.58;2.38;;;22.30;64.80;;;;;;5072509;28;20666;-84
2023/07/09 10:23:07;;;;;;;2.60;2.40;;;22.30;64.80;;;;;;5055502;28;20243;-82
2023/07/09 10:25:51;;;;;;;2.88;2.33;;;22.30;64.80;;;;;;5073199;28;20158;-82
2023/07/09 10:28:35;;;;;;;2.33;2.13;;;22.30;64.50;;;;;;5073107;28;20150;-83
2023/07/09 10:31:11;;;;;;;2.60;2.40;;;22.20;64.40;;;;;;5071902;28;20244;-84
2023/07/09 10:33:49;;;;;;;2.40;2.20;;;22.30;64.70;;;;;;5071555;28;20618;-84
2023/07/09 10:36:23;;;;;;;2.30;2.10;;;22.30;64.40;;;;;;5071920;28;20227;-83
2023/07/09 10:39:08;;;;;;;2.95;2.70;;;22.40;64.10;;;;;;5071468;28;20286;-83
2023/07/09 10:41:35;;;;;;;2.47;2.28;;;22.40;64.20;;;;;;5071877;28;20181;-82
2023/07/09 10:44:10;;;;;;;2.50;2.30;;;22.30;64.20;;;;;;5072767;28;20156;-85
2023/07/09 10:46:38;;;;;;;2.33;2.13;;;22.30;64.10;;;;;;5073007;28;20156;-84
2023/07/09 10:49:06;;;;;;;2.05;1.85;;;22.40;63.80;;;;;;5071708;28;20192;-83
2023/07/09 10:51:47;;;;;;;2.45;2.25;;;22.40;63.60;;;;;;5072576;28;20164;-82
2023/07/09 10:54:26;;;;;;;2.40;2.20;;;22.40;63.90;;;;;;5072806;28;20157;-81
2023/07/09 10:56:57;;;;;;;2.33;2.13;;;22.40;63.80;;;;;;5071656;28;20162;-81
2023/07/09 10:59:35;;;;;;;2.22;2.03;;;22.40;63.70;;;;;;5071138;28;20656;-83
2023/07/09 11:02:18;;;;;;;2.00;1.90;;;22.30;63.90;;;;;;5072786;28;20168;-84
2023/07/09 11:04:58;;;;;;;2.20;2.00;;;22.40;63.60;;;;;;5071503;28;20169;-85
2023/07/09 11:07:28;;;;;;;2.08;1.95;;;22.40;63.30;;;;;;5071571;28;20168;-82
2023/07/09 11:09:56;;;;;;;2.20;2.00;;;22.50;63.30;;;;;;5072464;28;20153;-83
2023/07/09 11:12:29;;;;;;;2.25;2.05;;;22.40;63.30;;;;;;5071161;28;20169;-83
2023/07/09 11:14:59;;;;;;;2.13;1.92;;;22.40;63.10;;;;;;5073242;28;20177;-84
2023/07/09 11:17:26;;;;;;;2.20;2.00;;;22.50;63.10;;;;;;5058022;28;20173;-84
2023/07/09 11:19:56;;;;;;;2.53;2.33;;;22.50;63.10;;;;;;5058448;28;20280;-84
2023/07/09 11:22:23;;;;;;;2.05;1.95;;;22.50;63.10;;;;;;5076219;28;20165;-85
2023/07/09 11:24:55;;;;;;;2.03;1.90;;;22.40;63.20;;;;;;5074875;28;20597;-84
2023/07/09 11:27:24;;;;;;;2.50;2.30;;;22.40;63.20;;;;;;5074706;28;20150;-83
2023/07/09 11:30:01;;;;;;;2.28;2.08;;;22.50;63.10;;;;;;5075789;28;20158;-84
2023/07/09 11:32:27;;;;;;;2.20;2.00;;;22.50;62.90;;;;;;5074584;28;20149;-82
2023/07/09 11:34:53;;;;;;;2.20;2.00;;;22.50;62.90;;;;;;5057908;28;20580;-83
2023/07/09 11:37:20;;;;;;;2.17;1.98;;;22.40;63.00;;;;;;5074245;28;20336;-82
2023/07/09 11:39:47;;;;;;;2.35;2.15;;;22.40;63.00;;;;;;5074487;28;20199;-83
2023/07/09 11:42:29;;;;;;;2.20;2.00;;;22.40;63.00;;;;;;5074693;28;20153;-84
2023/07/09 11:45:08;;;;;;;1.95;1.85;;;22.50;63.00;;;;;;5058087;28;20169;-84
2023/07/09 11:47:47;;;;;;;1.98;1.88;;;22.40;63.00;;;;;;5075652;28;20146;-83
2023/07/09 11:50:28;;;;;;;2.00;1.90;;;22.50;62.90;;;;;;5075409;28;20161;-84
2023/07/09 11:52:58;;;;;;;1.75;1.65;;;22.50;62.70;;;;;;5057822;28;20207;-81
2023/07/09 11:55:28;;;;;;;2.25;2.00;;;22.50;62.70;;;;;;5074087;28;20173;-83
2023/07/09 11:57:56;;;;;;;2.20;2.00;;;22.40;62.50;;;;;;5074040;28;20164;-82
2023/07/09 12:00:22;;;;;;;2.33;2.13;;;22.50;62.40;;;;;;5058130;28;20193;-83
2023/07/09 12:02:48;;;;;;;2.17;2.00;;;22.50;62.30;;;;;;5075346;28;20354;-83
2023/07/09 12:05:18;;;;;;;2.20;2.00;;;22.50;62.30;;;;;;5073879;28;20659;-82
2023/07/09 12:07:44;;;;;;;1.75;1.65;;;22.50;62.40;;;;;;5057465;28;20615;-85
2023/07/09 12:10:19;;;;;;;1.90;1.80;;;22.50;62.30;;;;;;5073829;28;20165;-84
2023/07/09 12:12:45;;;;;;;1.90;1.80;;;22.60;62.30;;;;;;5057449;28;20318;-81
2023/07/09 12:15:21;;;;;;;1.85;1.75;;;22.60;62.20;;;;;;5056955;28;20632;-83
2023/07/09 12:18:09;;;;;;;1.80;1.67;;;22.60;62.10;;;;;;5073841;28;20647;-83
2023/07/09 12:20:35;;;;;;;2.20;2.00;;;22.60;61.90;;;;;;5073579;28;20162;-83
2023/07/09 12:23:15;;;;;;;1.80;1.70;;;22.50;61.80;;;;;;5075149;28;20485;-83
2023/07/09 12:25:47;;;;;;;1.73;1.60;;;22.60;61.90;;;;;;5073324;28;20521;-83
2023/07/09 12:28:14;;;;;;;1.90;1.77;;;22.50;62.00;;;;;;5073820;28;20241;-81
2023/07/09 12:30:44;;;;;;;1.77;1.67;;;22.50;62.10;;;;;;5073200;28;20659;-82
2023/07/09 12:33:15;;;;;;;1.80;1.70;;;22.50;62.10;;;;;;5073275;28;20169;-82
2023/07/09 12:35:41;;;;;;;1.92;1.80;;;22.50;62.10;;;;;;5073213;28;20162;-82
2023/07/09 12:38:20;;;;;;;1.80;1.70;;;22.50;61.90;;;;;;5088223;28;20591;-83
2023/07/09 12:40:46;;;;;;;1.90;1.80;;;22.50;61.70;;;;;;5094829;28;20153;-83
2023/07/09 12:43:12;;;;;;;1.92;1.80;;;22.50;62.00;;;;;;5059776;28;20171;-83
2023/07/09 12:45:38;;;;;;;2.10;1.90;;;22.60;62.00;;;;;;5076952;28;20223;-84
2023/07/09 12:48:04;;;;;;;1.83;1.73;;;22.50;62.00;;;;;;5094602;28;20612;-82
2023/07/09 12:50:33;;;;;;;1.80;1.70;;;22.50;61.90;;;;;;5094379;28;20170;-83
2023/07/09 12:53:02;;;;;;;1.83;1.70;;;22.50;61.80;;;;;;5076210;28;20198;-84
2023/07/09 12:55:30;;;;;;;1.83;1.73;;;22.50;61.80;;;;;;5076488;28;20680;-83